sensor_id;sensor_type;location;lat;lon;timestamp;P1;durP1;ratioP1;P2;durP2;ratioP2
51718;SDS011;37795;53.236;5.704;2023-05-07T00:00:39;1.80;;;1.63;;
51718;SDS011;37795;53.236;5.704;2023-05-07T00:03:05;1.90;;;1.80;;
51718;SDS011;37795;53.236;5.704;2023-05-07T00:05:31;1.05;;;0.90;;
51718;SDS011;37795;53.236;5.704;2023-05-07T00:07:57;1.53;;;1.43;;
51718;SDS011;37795;53.236;5.704;2023-05-07T00:10:23;1.23;;;1.20;;
51718;SDS011;37795;53.236;5.704;2023-05-07T00:12:49;1.13;;;1.03;;
51718;SDS011;37795;53.236;5.704;2023-05-07T00:15:14;2.40;;;1.67;;
51718;SDS011;37795;53.236;5.704;2023-05-07T00:17:40;3.07;;;2.20;;
51718;SDS011;37795;53.236;5.704;2023-05-07T00:20:06;1.90;;;1.60;;
51718;SDS011;37795;53.236;5.704;2023-05-07T00:22:32;2.55;;;2.35;;
51718;SDS011;37795;53.236;5.704;2023-05-07T00:24:58;1.83;;;1.67;;
51718;SDS011;37795;53.236;5.704;2023-05-07T00:27:24;1.60;;;1.50;;
51718;SDS011;37795;53.236;5.704;2023-05-07T00:29:50;1.70;;;1.40;;
51718;SDS011;37795;53.236;5.704;2023-05-07T00:32:16;1.43;;;1.33;;
51718;SDS011;37795;53.236;5.704;2023-05-07T00:34:42;1.03;;;1.00;;
51718;SDS011;37795;53.236;5.704;2023-05-07T00:37:08;1.17;;;1.08;;
51718;SDS011;37795;53.236;5.704;2023-05-07T00:39:34;1.67;;;1.58;;
51718;SDS011;37795;53.236;5.704;2023-05-07T00:42:00;0.60;;;0.60;;
51718;SDS011;37795;53.236;5.704;2023-05-07T00:44:27;1.92;;;1.25;;
51718;SDS011;37795;53.236;5.704;2023-05-07T00:46:53;2.25;;;1.95;;
51718;SDS011;37795;53.236;5.704;2023-05-07T00:49:19;1.42;;;1.30;;
51718;SDS011;37795;53.236;5.704;2023-05-07T00:51:46;3.35;;;2.15;;
51718;SDS011;37795;53.236;5.704;2023-05-07T00:54:12;2.88;;;2.60;;
51718;SDS011;37795;53.236;5.704;2023-05-07T00:56:38;2.25;;;1.52;;
51718;SDS011;37795;53.236;5.704;2023-05-07T00:59:05;3.88;;;2.97;;
51718;SDS011;37795;53.236;5.704;2023-05-07T01:01:31;2.05;;;1.50;;
51718;SDS011;37795;53.236;5.704;2023-05-07T01:03:57;2.07;;;1.90;;
51718;SDS011;37795;53.236;5.704;2023-05-07T01:06:23;3.40;;;2.97;;
51718;SDS011;37795;53.236;5.704;2023-05-07T01:08:50;1.20;;;1.20;;
51718;SDS011;37795;53.236;5.704;2023-05-07T01:11:18;2.85;;;2.15;;
51718;SDS011;37795;53.236;5.704;2023-05-07T01:13:45;2.03;;;1.92;;
51718;SDS011;37795;53.236;5.704;2023-05-07T01:16:12;3.22;;;2.03;;
51718;SDS011;37795;53.236;5.704;2023-05-07T01:18:38;1.88;;;1.77;;
51718;SDS011;37795;53.236;5.704;2023-05-07T01:21:04;3.03;;;2.42;;
51718;SDS011;37795;53.236;5.704;2023-05-07T01:23:31;1.80;;;1.15;;
51718;SDS011;37795;53.236;5.704;2023-05-07T01:25:58;3.58;;;1.85;;
51718;SDS011;37795;53.236;5.704;2023-05-07T01:28:24;1.73;;;1.40;;
51718;SDS011;37795;53.236;5.704;2023-05-07T01:30:51;3.17;;;2.87;;
51718;SDS011;37795;53.236;5.704;2023-05-07T01:33:21;4.35;;;3.10;;
51718;SDS011;37795;53.236;5.704;2023-05-07T01:35:48;3.47;;;3.08;;
51718;SDS011;37795;53.236;5.704;2023-05-07T01:38:16;1.52;;;1.42;;
51718;SDS011;37795;53.236;5.704;2023-05-07T01:40:44;1.75;;;1.65;;
51718;SDS011;37795;53.236;5.704;2023-05-07T01:43:10;2.42;;;2.25;;
51718;SDS011;37795;53.236;5.704;2023-05-07T01:45:36;2.40;;;1.90;;
51718;SDS011;37795;53.236;5.704;2023-05-07T01:48:02;4.20;;;2.20;;
51718;SDS011;37795;53.236;5.704;2023-05-07T01:50:29;2.75;;;2.63;;
51718;SDS011;37795;53.236;5.704;2023-05-07T01:52:56;2.03;;;1.85;;
51718;SDS011;37795;53.236;5.704;2023-05-07T01:55:22;1.60;;;1.50;;
51718;SDS011;37795;53.236;5.704;2023-05-07T01:57:48;2.55;;;2.00;;
51718;SDS011;37795;53.236;5.704;2023-05-07T02:00:14;2.95;;;2.70;;
51718;SDS011;37795;53.236;5.704;2023-05-07T02:02:40;3.08;;;2.63;;
51718;SDS011;37795;53.236;5.704;2023-05-07T02:05:06;4.63;;;2.43;;
51718;SDS011;37795;53.236;5.704;2023-05-07T02:07:32;2.45;;;2.25;;
51718;SDS011;37795;53.236;5.704;2023-05-07T02:09:58;4.43;;;3.53;;
51718;SDS011;37795;53.236;5.704;2023-05-07T02:12:24;3.07;;;1.67;;
51718;SDS011;37795;53.236;5.704;2023-05-07T02:14:49;2.80;;;1.90;;
51718;SDS011;37795;53.236;5.704;2023-05-07T02:17:15;2.33;;;2.23;;
51718;SDS011;37795;53.236;5.704;2023-05-07T02:19:41;3.57;;;3.27;;
51718;SDS011;37795;53.236;5.704;2023-05-07T02:22:07;3.17;;;2.80;;
51718;SDS011;37795;53.236;5.704;2023-05-07T02:24:33;4.88;;;1.85;;
51718;SDS011;37795;53.236;5.704;2023-05-07T02:26:58;4.60;;;3.80;;
51718;SDS011;37795;53.236;5.704;2023-05-07T02:29:25;3.63;;;2.42;;
51718;SDS011;37795;53.236;5.704;2023-05-07T02:31:50;1.90;;;1.80;;
51718;SDS011;37795;53.236;5.704;2023-05-07T02:34:18;3.92;;;2.85;;
51718;SDS011;37795;53.236;5.704;2023-05-07T02:36:44;2.90;;;2.47;;
51718;SDS011;37795;53.236;5.704;2023-05-07T02:39:10;2.50;;;1.77;;
51718;SDS011;37795;53.236;5.704;2023-05-07T02:41:37;4.38;;;2.00;;
51718;SDS011;37795;53.236;5.704;2023-05-07T02:44:03;4.25;;;2.05;;
51718;SDS011;37795;53.236;5.704;2023-05-07T02:46:29;2.83;;;2.63;;
51718;SDS011;37795;53.236;5.704;2023-05-07T02:48:55;3.27;;;2.40;;
51718;SDS011;37795;53.236;5.704;2023-05-07T02:51:21;3.87;;;2.83;;
51718;SDS011;37795;53.236;5.704;2023-05-07T02:53:47;3.65;;;3.35;;
51718;SDS011;37795;53.236;5.704;2023-05-07T02:56:13;3.65;;;3.20;;
51718;SDS011;37795;53.236;5.704;2023-05-07T02:58:39;2.37;;;2.20;;
51718;SDS011;37795;53.236;5.704;2023-05-07T03:01:05;7.65;;;3.70;;
51718;SDS011;37795;53.236;5.704;2023-05-07T03:03:31;3.92;;;3.55;;
51718;SDS011;37795;53.236;5.704;2023-05-07T03:05:57;3.33;;;3.13;;
51718;SDS011;37795;53.236;5.704;2023-05-07T03:08:23;4.87;;;4.03;;
51718;SDS011;37795;53.236;5.704;2023-05-07T03:10:49;4.15;;;3.03;;
51718;SDS011;37795;53.236;5.704;2023-05-07T03:13:15;3.60;;;2.45;;
51718;SDS011;37795;53.236;5.704;2023-05-07T03:15:41;3.47;;;3.17;;
51718;SDS011;37795;53.236;5.704;2023-05-07T03:18:07;3.03;;;2.83;;
51718;SDS011;37795;53.236;5.704;2023-05-07T03:20:33;5.87;;;3.00;;
51718;SDS011;37795;53.236;5.704;2023-05-07T03:22:58;4.63;;;3.50;;
51718;SDS011;37795;53.236;5.704;2023-05-07T03:25:24;4.73;;;3.83;;
51718;SDS011;37795;53.236;5.704;2023-05-07T03:27:50;6.20;;;3.40;;
51718;SDS011;37795;53.236;5.704;2023-05-07T03:30:16;3.03;;;2.67;;
51718;SDS011;37795;53.236;5.704;2023-05-07T03:32:41;3.97;;;2.83;;
51718;SDS011;37795;53.236;5.704;2023-05-07T03:35:07;3.57;;;3.13;;
51718;SDS011;37795;53.236;5.704;2023-05-07T03:37:33;3.27;;;2.67;;
51718;SDS011;37795;53.236;5.704;2023-05-07T03:39:59;2.83;;;2.63;;
51718;SDS011;37795;53.236;5.704;2023-05-07T03:42:25;4.00;;;2.50;;
51718;SDS011;37795;53.236;5.704;2023-05-07T03:44:50;6.67;;;4.60;;
51718;SDS011;37795;53.236;5.704;2023-05-07T03:47:16;2.63;;;2.40;;
51718;SDS011;37795;53.236;5.704;2023-05-07T03:49:42;2.87;;;2.23;;
51718;SDS011;37795;53.236;5.704;2023-05-07T03:52:07;5.63;;;2.53;;
51718;SDS011;37795;53.236;5.704;2023-05-07T03:54:33;3.30;;;2.73;;
51718;SDS011;37795;53.236;5.704;2023-05-07T03:56:59;4.63;;;3.43;;
51718;SDS011;37795;53.236;5.704;2023-05-07T03:59:25;3.87;;;1.57;;
51718;SDS011;37795;53.236;5.704;2023-05-07T04:01:50;1.97;;;1.47;;
51718;SDS011;37795;53.236;5.704;2023-05-07T04:04:16;2.97;;;1.33;;
51718;SDS011;37795;53.236;5.704;2023-05-07T04:06:42;1.77;;;1.67;;
51718;SDS011;37795;53.236;5.704;2023-05-07T04:09:08;2.43;;;2.07;;
51718;SDS011;37795;53.236;5.704;2023-05-07T04:11:34;2.33;;;1.77;;
51718;SDS011;37795;53.236;5.704;2023-05-07T04:14:00;3.10;;;2.70;;
51718;SDS011;37795;53.236;5.704;2023-05-07T04:16:26;4.20;;;2.37;;
51718;SDS011;37795;53.236;5.704;2023-05-07T04:18:52;2.57;;;2.37;;
51718;SDS011;37795;53.236;5.704;2023-05-07T04:21:19;4.63;;;3.50;;
51718;SDS011;37795;53.236;5.704;2023-05-07T04:23:46;2.88;;;2.67;;
51718;SDS011;37795;53.236;5.704;2023-05-07T04:28:38;5.20;;;3.05;;
51718;SDS011;37795;53.236;5.704;2023-05-07T04:31:05;2.63;;;1.88;;
51718;SDS011;37795;53.236;5.704;2023-05-07T04:33:31;2.35;;;2.17;;
51718;SDS011;37795;53.236;5.704;2023-05-07T04:35:58;3.88;;;2.38;;
51718;SDS011;37795;53.236;5.704;2023-05-07T04:38:28;7.03;;;3.67;;
51718;SDS011;37795;53.236;5.704;2023-05-07T04:40:58;5.18;;;3.20;;
51718;SDS011;37795;53.236;5.704;2023-05-07T04:43:27;5.68;;;4.72;;
51718;SDS011;37795;53.236;5.704;2023-05-07T04:45:53;7.90;;;3.50;;
51718;SDS011;37795;53.236;5.704;2023-05-07T04:48:19;2.70;;;2.50;;
51718;SDS011;37795;53.236;5.704;2023-05-07T04:50:51;3.15;;;2.78;;
51718;SDS011;37795;53.236;5.704;2023-05-07T04:53:17;3.53;;;3.20;;
51718;SDS011;37795;53.236;5.704;2023-05-07T04:55:44;6.68;;;3.35;;
51718;SDS011;37795;53.236;5.704;2023-05-07T04:58:12;4.65;;;3.67;;
51718;SDS011;37795;53.236;5.704;2023-05-07T05:00:39;3.13;;;2.63;;
51718;SDS011;37795;53.236;5.704;2023-05-07T05:03:06;5.75;;;5.20;;
51718;SDS011;37795;53.236;5.704;2023-05-07T05:05:32;5.10;;;4.10;;
51718;SDS011;37795;53.236;5.704;2023-05-07T05:07:58;4.47;;;2.90;;
51718;SDS011;37795;53.236;5.704;2023-05-07T05:10:23;3.97;;;2.70;;
51718;SDS011;37795;53.236;5.704;2023-05-07T05:12:50;5.55;;;3.00;;
51718;SDS011;37795;53.236;5.704;2023-05-07T05:15:15;4.10;;;2.87;;
51718;SDS011;37795;53.236;5.704;2023-05-07T05:17:41;4.27;;;3.67;;
51718;SDS011;37795;53.236;5.704;2023-05-07T05:20:07;6.27;;;4.10;;
51718;SDS011;37795;53.236;5.704;2023-05-07T05:22:34;6.50;;;4.97;;
51718;SDS011;37795;53.236;5.704;2023-05-07T05:25:00;7.23;;;6.53;;
51718;SDS011;37795;53.236;5.704;2023-05-07T05:27:26;5.60;;;4.78;;
51718;SDS011;37795;53.236;5.704;2023-05-07T05:29:52;3.83;;;3.47;;
51718;SDS011;37795;53.236;5.704;2023-05-07T05:32:17;4.93;;;3.73;;
51718;SDS011;37795;53.236;5.704;2023-05-07T05:34:43;6.50;;;4.77;;
51718;SDS011;37795;53.236;5.704;2023-05-07T05:37:09;5.05;;;3.80;;
51718;SDS011;37795;53.236;5.704;2023-05-07T05:39:35;5.07;;;4.17;;
51718;SDS011;37795;53.236;5.704;2023-05-07T05:42:01;5.30;;;4.32;;
51718;SDS011;37795;53.236;5.704;2023-05-07T05:44:27;4.77;;;4.03;;
51718;SDS011;37795;53.236;5.704;2023-05-07T05:46:53;5.13;;;2.97;;
51718;SDS011;37795;53.236;5.704;2023-05-07T05:49:24;4.70;;;3.33;;
51718;SDS011;37795;53.236;5.704;2023-05-07T05:51:50;7.57;;;5.75;;
51718;SDS011;37795;53.236;5.704;2023-05-07T05:54:16;7.37;;;6.27;;
51718;SDS011;37795;53.236;5.704;2023-05-07T05:56:41;6.63;;;4.27;;
51718;SDS011;37795;53.236;5.704;2023-05-07T05:59:07;5.68;;;4.35;;
51718;SDS011;37795;53.236;5.704;2023-05-07T06:01:33;6.83;;;5.03;;
51718;SDS011;37795;53.236;5.704;2023-05-07T06:03:59;3.60;;;2.87;;
51718;SDS011;37795;53.236;5.704;2023-05-07T06:06:25;6.43;;;4.00;;
51718;SDS011;37795;53.236;5.704;2023-05-07T06:08:51;8.70;;;5.30;;
51718;SDS011;37795;53.236;5.704;2023-05-07T06:11:16;3.60;;;3.03;;
51718;SDS011;37795;53.236;5.704;2023-05-07T06:13:42;8.30;;;4.90;;
51718;SDS011;37795;53.236;5.704;2023-05-07T06:16:08;4.93;;;3.93;;
51718;SDS011;37795;53.236;5.704;2023-05-07T06:18:34;4.13;;;3.20;;
51718;SDS011;37795;53.236;5.704;2023-05-07T06:21:01;8.30;;;5.03;;
51718;SDS011;37795;53.236;5.704;2023-05-07T06:23:27;5.35;;;3.67;;
51718;SDS011;37795;53.236;5.704;2023-05-07T06:25:53;5.03;;;3.17;;
51718;SDS011;37795;53.236;5.704;2023-05-07T06:28:18;3.50;;;3.20;;
51718;SDS011;37795;53.236;5.704;2023-05-07T06:30:44;6.33;;;4.13;;
51718;SDS011;37795;53.236;5.704;2023-05-07T06:33:10;4.07;;;3.63;;
51718;SDS011;37795;53.236;5.704;2023-05-07T06:35:36;10.77;;;4.87;;
51718;SDS011;37795;53.236;5.704;2023-05-07T06:38:02;3.57;;;3.27;;
51718;SDS011;37795;53.236;5.704;2023-05-07T06:40:27;5.43;;;3.70;;
51718;SDS011;37795;53.236;5.704;2023-05-07T06:42:53;3.53;;;3.23;;
51718;SDS011;37795;53.236;5.704;2023-05-07T06:45:19;4.63;;;4.10;;
51718;SDS011;37795;53.236;5.704;2023-05-07T06:47:45;3.42;;;2.92;;
51718;SDS011;37795;53.236;5.704;2023-05-07T06:56:23;4.43;;;3.45;;
51718;SDS011;37795;53.236;5.704;2023-05-07T06:58:50;5.40;;;3.20;;
51718;SDS011;37795;53.236;5.704;2023-05-07T07:01:15;5.63;;;3.73;;
51718;SDS011;37795;53.236;5.704;2023-05-07T07:03:41;3.83;;;3.00;;
51718;SDS011;37795;53.236;5.704;2023-05-07T07:06:07;6.47;;;3.07;;
51718;SDS011;37795;53.236;5.704;2023-05-07T07:08:33;2.73;;;2.30;;
51718;SDS011;37795;53.236;5.704;2023-05-07T07:10:59;6.43;;;3.95;;
51718;SDS011;37795;53.236;5.704;2023-05-07T07:13:25;5.60;;;3.00;;
51718;SDS011;37795;53.236;5.704;2023-05-07T07:15:51;6.73;;;4.27;;
51718;SDS011;37795;53.236;5.704;2023-05-07T07:18:18;11.10;;;3.55;;
51718;SDS011;37795;53.236;5.704;2023-05-07T07:20:44;6.88;;;3.95;;
51718;SDS011;37795;53.236;5.704;2023-05-07T07:23:09;4.93;;;3.17;;
51718;SDS011;37795;53.236;5.704;2023-05-07T07:25:35;7.57;;;4.17;;
51718;SDS011;37795;53.236;5.704;2023-05-07T07:28:01;5.73;;;4.00;;
51718;SDS011;37795;53.236;5.704;2023-05-07T07:30:27;8.13;;;5.37;;
51718;SDS011;37795;53.236;5.704;2023-05-07T07:32:53;5.60;;;4.45;;
51718;SDS011;37795;53.236;5.704;2023-05-07T07:35:20;3.92;;;3.35;;
51718;SDS011;37795;53.236;5.704;2023-05-07T07:37:46;2.88;;;2.60;;
51718;SDS011;37795;53.236;5.704;2023-05-07T07:40:14;4.68;;;3.70;;
51718;SDS011;37795;53.236;5.704;2023-05-07T07:42:40;6.95;;;3.33;;
51718;SDS011;37795;53.236;5.704;2023-05-07T07:45:06;4.57;;;3.43;;
51718;SDS011;37795;53.236;5.704;2023-05-07T07:47:32;6.00;;;3.97;;
51718;SDS011;37795;53.236;5.704;2023-05-07T07:49:58;4.30;;;3.90;;
51718;SDS011;37795;53.236;5.704;2023-05-07T07:52:24;4.47;;;4.10;;
51718;SDS011;37795;53.236;5.704;2023-05-07T07:54:50;4.43;;;4.03;;
51718;SDS011;37795;53.236;5.704;2023-05-07T07:57:15;7.60;;;4.40;;
51718;SDS011;37795;53.236;5.704;2023-05-07T07:59:41;3.83;;;3.03;;
51718;SDS011;37795;53.236;5.704;2023-05-07T08:02:08;8.20;;;5.35;;
51718;SDS011;37795;53.236;5.704;2023-05-07T08:04:34;9.23;;;4.97;;
51718;SDS011;37795;53.236;5.704;2023-05-07T08:07:00;6.93;;;5.10;;
51718;SDS011;37795;53.236;5.704;2023-05-07T08:09:26;6.63;;;4.10;;
51718;SDS011;37795;53.236;5.704;2023-05-07T08:11:51;7.03;;;4.73;;
51718;SDS011;37795;53.236;5.704;2023-05-07T08:14:18;7.93;;;5.25;;
51718;SDS011;37795;53.236;5.704;2023-05-07T08:16:43;6.27;;;5.63;;
51718;SDS011;37795;53.236;5.704;2023-05-07T08:19:09;6.03;;;3.90;;
51718;SDS011;37795;53.236;5.704;2023-05-07T08:21:38;7.23;;;4.00;;
51718;SDS011;37795;53.236;5.704;2023-05-07T08:24:04;7.32;;;5.22;;
51718;SDS011;37795;53.236;5.704;2023-05-07T08:26:30;3.70;;;3.28;;
51718;SDS011;37795;53.236;5.704;2023-05-07T08:28:55;5.97;;;3.90;;
51718;SDS011;37795;53.236;5.704;2023-05-07T08:31:21;3.63;;;2.97;;
51718;SDS011;37795;53.236;5.704;2023-05-07T08:33:47;4.40;;;3.30;;
51718;SDS011;37795;53.236;5.704;2023-05-07T08:36:13;2.80;;;2.60;;
51718;SDS011;37795;53.236;5.704;2023-05-07T08:38:38;3.90;;;3.60;;
51718;SDS011;37795;53.236;5.704;2023-05-07T08:41:09;8.50;;;5.93;;
51718;SDS011;37795;53.236;5.704;2023-05-07T08:43:36;3.83;;;3.13;;
51718;SDS011;37795;53.236;5.704;2023-05-07T08:46:02;5.18;;;3.85;;
51718;SDS011;37795;53.236;5.704;2023-05-07T08:48:30;4.78;;;4.22;;
51718;SDS011;37795;53.236;5.704;2023-05-07T08:50:57;3.63;;;3.15;;
51718;SDS011;37795;53.236;5.704;2023-05-07T08:53:24;6.38;;;4.68;;
51718;SDS011;37795;53.236;5.704;2023-05-07T08:55:50;7.45;;;5.18;;
51718;SDS011;37795;53.236;5.704;2023-05-07T08:58:17;5.82;;;4.25;;
51718;SDS011;37795;53.236;5.704;2023-05-07T09:00:43;5.10;;;4.57;;
51718;SDS011;37795;53.236;5.704;2023-05-07T09:03:09;7.35;;;5.03;;
51718;SDS011;37795;53.236;5.704;2023-05-07T09:05:39;5.25;;;4.78;;
51718;SDS011;37795;53.236;5.704;2023-05-07T09:08:05;4.80;;;4.28;;
51718;SDS011;37795;53.236;5.704;2023-05-07T09:10:32;4.70;;;3.80;;
51718;SDS011;37795;53.236;5.704;2023-05-07T09:12:59;5.28;;;3.95;;
51718;SDS011;37795;53.236;5.704;2023-05-07T09:15:25;6.82;;;4.75;;
51718;SDS011;37795;53.236;5.704;2023-05-07T09:17:53;5.18;;;4.68;;
51718;SDS011;37795;53.236;5.704;2023-05-07T09:20:18;5.33;;;3.50;;
51718;SDS011;37795;53.236;5.704;2023-05-07T09:22:44;5.50;;;4.43;;
51718;SDS011;37795;53.236;5.704;2023-05-07T09:25:10;2.90;;;2.67;;
51718;SDS011;37795;53.236;5.704;2023-05-07T09:27:36;4.68;;;4.28;;
51718;SDS011;37795;53.236;5.704;2023-05-07T09:30:05;5.63;;;3.38;;
51718;SDS011;37795;53.236;5.704;2023-05-07T09:32:35;5.90;;;4.78;;
51718;SDS011;37795;53.236;5.704;2023-05-07T09:35:04;9.32;;;5.47;;
51718;SDS011;37795;53.236;5.704;2023-05-07T09:37:31;5.85;;;4.00;;
51718;SDS011;37795;53.236;5.704;2023-05-07T09:39:57;6.75;;;4.43;;
51718;SDS011;37795;53.236;5.704;2023-05-07T09:42:23;4.45;;;4.10;;
51718;SDS011;37795;53.236;5.704;2023-05-07T09:44:51;3.75;;;2.53;;
51718;SDS011;37795;53.236;5.704;2023-05-07T09:47:20;4.97;;;3.28;;
51718;SDS011;37795;53.236;5.704;2023-05-07T09:49:49;6.60;;;3.85;;
51718;SDS011;37795;53.236;5.704;2023-05-07T09:52:19;3.80;;;2.97;;
51718;SDS011;37795;53.236;5.704;2023-05-07T09:54:45;2.92;;;2.75;;
51718;SDS011;37795;53.236;5.704;2023-05-07T09:57:14;4.65;;;3.45;;
51718;SDS011;37795;53.236;5.704;2023-05-07T09:59:42;3.70;;;3.30;;
51718;SDS011;37795;53.236;5.704;2023-05-07T10:02:09;4.72;;;3.83;;
51718;SDS011;37795;53.236;5.704;2023-05-07T10:04:36;2.85;;;2.28;;
51718;SDS011;37795;53.236;5.704;2023-05-07T10:07:03;3.63;;;2.88;;
51718;SDS011;37795;53.236;5.704;2023-05-07T10:09:29;6.25;;;4.07;;
51718;SDS011;37795;53.236;5.704;2023-05-07T10:11:56;5.65;;;4.72;;
51718;SDS011;37795;53.236;5.704;2023-05-07T10:14:23;5.53;;;4.00;;
51718;SDS011;37795;53.236;5.704;2023-05-07T10:16:50;3.72;;;3.40;;
51718;SDS011;37795;53.236;5.704;2023-05-07T10:19:18;5.50;;;4.18;;
51718;SDS011;37795;53.236;5.704;2023-05-07T10:21:54;4.55;;;4.25;;
51718;SDS011;37795;53.236;5.704;2023-05-07T10:24:34;3.92;;;3.53;;
51718;SDS011;37795;53.236;5.704;2023-05-07T10:27:02;6.28;;;4.43;;
51718;SDS011;37795;53.236;5.704;2023-05-07T10:29:45;6.75;;;4.07;;
51718;SDS011;37795;53.236;5.704;2023-05-07T10:35:04;5.03;;;4.63;;
51718;SDS011;37795;53.236;5.704;2023-05-07T10:37:35;4.43;;;2.83;;
51718;SDS011;37795;53.236;5.704;2023-05-07T10:40:02;3.55;;;2.97;;
51718;SDS011;37795;53.236;5.704;2023-05-07T10:42:28;4.82;;;4.43;;
51718;SDS011;37795;53.236;5.704;2023-05-07T10:44:53;4.47;;;2.72;;
51718;SDS011;37795;53.236;5.704;2023-05-07T10:47:19;5.07;;;3.13;;
51718;SDS011;37795;53.236;5.704;2023-05-07T10:56:25;3.83;;;3.35;;
51718;SDS011;37795;53.236;5.704;2023-05-07T10:58:52;6.18;;;3.55;;
51718;SDS011;37795;53.236;5.704;2023-05-07T11:01:48;3.55;;;2.60;;
51718;SDS011;37795;53.236;5.704;2023-05-07T11:04:20;3.33;;;3.03;;
51718;SDS011;37795;53.236;5.704;2023-05-07T11:15:08;3.70;;;3.40;;
51718;SDS011;37795;53.236;5.704;2023-05-07T11:18:08;4.93;;;3.08;;
51718;SDS011;37795;53.236;5.704;2023-05-07T11:26:05;2.15;;;1.60;;
51718;SDS011;37795;53.236;5.704;2023-05-07T11:28:36;6.88;;;4.18;;
51718;SDS011;37795;53.236;5.704;2023-05-07T11:31:03;4.32;;;3.50;;
51718;SDS011;37795;53.236;5.704;2023-05-07T11:33:32;4.22;;;3.53;;
51718;SDS011;37795;53.236;5.704;2023-05-07T11:35:59;3.60;;;3.30;;
51718;SDS011;37795;53.236;5.704;2023-05-07T11:38:28;3.45;;;3.03;;
51718;SDS011;37795;53.236;5.704;2023-05-07T11:40:56;3.05;;;2.53;;
51718;SDS011;37795;53.236;5.704;2023-05-07T11:43:22;3.75;;;2.03;;
51718;SDS011;37795;53.236;5.704;2023-05-07T12:17:42;3.60;;;2.30;;
51718;SDS011;37795;53.236;5.704;2023-05-07T12:20:08;1.35;;;1.25;;
51718;SDS011;37795;53.236;5.704;2023-05-07T12:22:35;3.25;;;2.80;;
51718;SDS011;37795;53.236;5.704;2023-05-07T12:25:02;2.83;;;2.60;;
51718;SDS011;37795;53.236;5.704;2023-05-07T12:27:28;4.32;;;3.90;;
51718;SDS011;37795;53.236;5.704;2023-05-07T12:29:53;2.85;;;1.77;;
51718;SDS011;37795;53.236;5.704;2023-05-07T12:32:20;2.40;;;1.90;;
51718;SDS011;37795;53.236;5.704;2023-05-07T12:34:49;1.60;;;1.40;;
51718;SDS011;37795;53.236;5.704;2023-05-07T12:37:15;2.33;;;2.13;;
51718;SDS011;37795;53.236;5.704;2023-05-07T12:39:47;2.22;;;2.03;;
51718;SDS011;37795;53.236;5.704;2023-05-07T12:42:18;3.20;;;2.90;;
51718;SDS011;37795;53.236;5.704;2023-05-07T12:44:45;3.40;;;3.10;;
51718;SDS011;37795;53.236;5.704;2023-05-07T12:47:11;2.78;;;1.98;;
51718;SDS011;37795;53.236;5.704;2023-05-07T12:49:38;1.63;;;1.55;;
51718;SDS011;37795;53.236;5.704;2023-05-07T12:52:05;2.13;;;1.80;;
51718;SDS011;37795;53.236;5.704;2023-05-07T12:54:31;2.35;;;2.10;;
51718;SDS011;37795;53.236;5.704;2023-05-07T12:57:02;1.85;;;1.48;;
51718;SDS011;37795;53.236;5.704;2023-05-07T12:59:33;3.65;;;2.80;;
51718;SDS011;37795;53.236;5.704;2023-05-07T13:02:02;5.05;;;3.85;;
51718;SDS011;37795;53.236;5.704;2023-05-07T13:04:29;4.75;;;2.65;;
51718;SDS011;37795;53.236;5.704;2023-05-07T13:06:55;2.95;;;2.63;;
51718;SDS011;37795;53.236;5.704;2023-05-07T13:09:21;1.80;;;1.65;;
51718;SDS011;37795;53.236;5.704;2023-05-07T13:11:46;2.95;;;2.53;;
51718;SDS011;37795;53.236;5.704;2023-05-07T13:14:12;2.65;;;2.17;;
51718;SDS011;37795;53.236;5.704;2023-05-07T13:16:38;3.20;;;2.95;;
51718;SDS011;37795;53.236;5.704;2023-05-07T13:19:03;2.55;;;2.35;;
51718;SDS011;37795;53.236;5.704;2023-05-07T13:21:29;2.60;;;2.38;;
51718;SDS011;37795;53.236;5.704;2023-05-07T13:23:58;3.53;;;2.63;;
51718;SDS011;37795;53.236;5.704;2023-05-07T13:26:24;3.78;;;2.63;;
51718;SDS011;37795;53.236;5.704;2023-05-07T13:28:50;3.08;;;1.83;;
51718;SDS011;37795;53.236;5.704;2023-05-07T13:33:43;2.70;;;2.50;;
51718;SDS011;37795;53.236;5.704;2023-05-07T13:36:08;1.63;;;1.52;;
51718;SDS011;37795;53.236;5.704;2023-05-07T13:38:34;5.45;;;3.22;;
51718;SDS011;37795;53.236;5.704;2023-05-07T13:41:00;1.58;;;1.38;;
51718;SDS011;37795;53.236;5.704;2023-05-07T13:43:26;4.88;;;1.60;;
51718;SDS011;37795;53.236;5.704;2023-05-07T13:45:52;2.55;;;1.90;;
51718;SDS011;37795;53.236;5.704;2023-05-07T13:48:18;1.58;;;1.10;;
51718;SDS011;37795;53.236;5.704;2023-05-07T13:50:43;2.22;;;1.65;;
51718;SDS011;37795;53.236;5.704;2023-05-07T13:53:09;1.80;;;1.35;;
51718;SDS011;37795;53.236;5.704;2023-05-07T13:55:35;2.03;;;1.88;;
51718;SDS011;37795;53.236;5.704;2023-05-07T13:58:01;2.30;;;1.88;;
51718;SDS011;37795;53.236;5.704;2023-05-07T14:00:28;2.03;;;1.88;;
51718;SDS011;37795;53.236;5.704;2023-05-07T14:02:55;2.58;;;1.40;;
51718;SDS011;37795;53.236;5.704;2023-05-07T14:05:21;2.33;;;2.05;;
51718;SDS011;37795;53.236;5.704;2023-05-07T14:07:53;1.67;;;1.52;;
51718;SDS011;37795;53.236;5.704;2023-05-07T14:10:22;2.08;;;1.60;;
51718;SDS011;37795;53.236;5.704;2023-05-07T14:12:48;2.85;;;2.17;;
51718;SDS011;37795;53.236;5.704;2023-05-07T14:15:14;2.00;;;1.85;;
51718;SDS011;37795;53.236;5.704;2023-05-07T14:17:41;2.50;;;2.30;;
51718;SDS011;37795;53.236;5.704;2023-05-07T14:20:07;2.47;;;2.13;;
51718;SDS011;37795;53.236;5.704;2023-05-07T14:22:35;1.65;;;1.55;;
51718;SDS011;37795;53.236;5.704;2023-05-07T14:25:01;2.75;;;2.42;;
51718;SDS011;37795;53.236;5.704;2023-05-07T14:27:27;2.75;;;2.22;;
51718;SDS011;37795;53.236;5.704;2023-05-07T14:29:52;4.43;;;2.53;;
51718;SDS011;37795;53.236;5.704;2023-05-07T14:32:18;2.45;;;2.25;;
51718;SDS011;37795;53.236;5.704;2023-05-07T14:34:44;3.33;;;2.17;;
51718;SDS011;37795;53.236;5.704;2023-05-07T14:39:36;1.88;;;1.67;;
51718;SDS011;37795;53.236;5.704;2023-05-07T14:42:02;1.90;;;1.75;;
51718;SDS011;37795;53.236;5.704;2023-05-07T14:44:28;3.08;;;1.67;;
51718;SDS011;37795;53.236;5.704;2023-05-07T14:46:54;2.15;;;1.63;;
51718;SDS011;37795;53.236;5.704;2023-05-07T14:49:20;2.25;;;2.05;;
51718;SDS011;37795;53.236;5.704;2023-05-07T14:51:46;2.30;;;2.10;;
51718;SDS011;37795;53.236;5.704;2023-05-07T14:56:38;1.10;;;0.98;;
51718;SDS011;37795;53.236;5.704;2023-05-07T14:59:05;4.00;;;2.17;;
51718;SDS011;37795;53.236;5.704;2023-05-07T15:01:31;1.52;;;1.38;;
51718;SDS011;37795;53.236;5.704;2023-05-07T15:03:59;1.75;;;1.65;;
51718;SDS011;37795;53.236;5.704;2023-05-07T15:06:25;1.20;;;0.93;;
51718;SDS011;37795;53.236;5.704;2023-05-07T15:08:51;1.60;;;1.45;;
51718;SDS011;37795;53.236;5.704;2023-05-07T15:11:17;1.92;;;1.55;;
51718;SDS011;37795;53.236;5.704;2023-05-07T15:13:43;1.17;;;1.13;;
51718;SDS011;37795;53.236;5.704;2023-05-07T15:16:09;1.63;;;1.42;;
51718;SDS011;37795;53.236;5.704;2023-05-07T15:18:34;1.50;;;1.35;;
51718;SDS011;37795;53.236;5.704;2023-05-07T15:21:00;1.75;;;1.33;;
51718;SDS011;37795;53.236;5.704;2023-05-07T15:23:26;1.27;;;1.17;;
51718;SDS011;37795;53.236;5.704;2023-05-07T15:25:52;1.60;;;1.45;;
51718;SDS011;37795;53.236;5.704;2023-05-07T15:28:18;1.35;;;1.17;;
51718;SDS011;37795;53.236;5.704;2023-05-07T15:30:44;1.85;;;1.13;;
51718;SDS011;37795;53.236;5.704;2023-05-07T15:33:10;2.25;;;1.73;;
51718;SDS011;37795;53.236;5.704;2023-05-07T15:35:36;2.78;;;1.67;;
51718;SDS011;37795;53.236;5.704;2023-05-07T15:38:02;2.08;;;1.60;;
51718;SDS011;37795;53.236;5.704;2023-05-07T15:40:28;2.08;;;1.65;;
51718;SDS011;37795;53.236;5.704;2023-05-07T15:42:54;2.90;;;2.65;;
51718;SDS011;37795;53.236;5.704;2023-05-07T15:45:21;1.77;;;1.67;;
51718;SDS011;37795;53.236;5.704;2023-05-07T15:47:50;2.00;;;1.48;;
51718;SDS011;37795;53.236;5.704;2023-05-07T15:50:16;2.85;;;1.27;;
51718;SDS011;37795;53.236;5.704;2023-05-07T15:52:41;1.65;;;1.10;;
51718;SDS011;37795;53.236;5.704;2023-05-07T15:55:07;2.83;;;2.58;;